Time;durP1;ratioP1;P1;durP2;ratioP2;P2;SDS_P1;SDS_P2;PMS_P1;PMS_P2;Temp;Humidity;BMP_temperature;BMP_pressure;BME280_temperature;BME280_humidity;BME280_pressure;Samples;Min_cycle;Max_cycle;Signal;HPM_P1;HPM_P2
2022/05/03 00:00:03;;;;;;;7.13;6.53;;;15.60;99.90;;;;;;5061293;28;20458;-80
2022/05/03 00:02:42;;;;;;;7.30;6.20;;;15.60;99.90;;;;;;5060967;28;20473;-80
2022/05/03 00:05:16;;;;;;;6.23;5.63;;;15.60;99.90;;;;;;5062422;28;20472;-79
2022/05/03 00:07:48;;;;;;;7.20;6.47;;;15.50;99.90;;;;;;5058318;28;20508;-80
2022/05/03 00:10:21;;;;;;;7.57;6.67;;;15.50;99.90;;;;;;5059378;28;20460;-80
2022/05/03 00:13:02;;;;;;;8.87;6.60;;;15.40;99.90;;;;;;5063218;28;20462;-78
2022/05/03 00:15:35;;;;;;;6.00;5.50;;;15.30;99.90;;;;;;5061829;28;20462;-79
2022/05/03 00:18:04;;;;;;;7.17;6.47;;;15.30;99.90;;;;;;5066748;28;22071;-79
2022/05/03 00:20:34;;;;;;;7.57;6.83;;;15.30;99.90;;;;;;5069509;28;20482;-79
2022/05/03 00:23:03;;;;;;;7.63;6.63;;;15.20;99.90;;;;;;5063065;28;20602;-80
2022/05/03 00:25:31;;;;;;;7.93;6.83;;;15.30;99.90;;;;;;5061985;28;20543;-80
2022/05/03 00:28:00;;;;;;;8.77;7.87;;;15.10;99.90;;;;;;5063171;28;20553;-79
2022/05/03 00:30:29;;;;;;;9.50;6.60;;;15.10;99.90;;;;;;5063134;28;20931;-78
2022/05/03 00:32:59;;;;;;;7.40;6.70;;;15.20;99.90;;;;;;5057783;28;20476;-80
2022/05/03 00:35:27;;;;;;;8.03;7.30;;;15.10;99.90;;;;;;5059653;28;20452;-79
2022/05/03 00:37:57;;;;;;;7.53;6.93;;;15.10;99.90;;;;;;5063499;28;20470;-80
2022/05/03 00:40:26;;;;;;;8.20;7.17;;;15.00;99.90;;;;;;5057311;28;20453;-80
2022/05/03 00:43:01;;;;;;;8.10;7.30;;;15.00;99.90;;;;;;5058898;28;20465;-78
2022/05/03 00:45:37;;;;;;;6.63;6.03;;;15.10;99.90;;;;;;5062625;28;20518;-79
2022/05/03 00:48:21;;;;;;;7.33;6.50;;;15.10;99.90;;;;;;5063408;28;22294;-78
2022/05/03 00:51:01;;;;;;;7.27;6.50;;;15.10;99.90;;;;;;5059014;28;20605;-79
2022/05/03 00:53:34;;;;;;;6.77;6.10;;;15.10;99.90;;;;;;5064729;28;20478;-80
2022/05/03 00:56:36;;;;;;;7.33;6.00;;;15.10;99.90;;;;;;5061490;28;20496;-80
2022/05/03 00:59:13;;;;;;;6.60;6.00;;;14.90;99.90;;;;;;5058045;28;20485;-78
2022/05/03 01:01:48;;;;;;;8.60;6.83;;;14.90;99.90;;;;;;5059583;28;20481;-79
2022/05/03 01:04:25;;;;;;;6.73;6.20;;;14.80;99.90;;;;;;5056845;28;20455;-79
2022/05/03 01:06:57;;;;;;;8.20;7.40;;;14.80;99.90;;;;;;5059474;28;20455;-79
2022/05/03 01:09:34;;;;;;;7.13;5.73;;;14.80;99.90;;;;;;5064683;28;20457;-79
2022/05/03 01:12:24;;;;;;;7.70;7.00;;;14.90;99.90;;;;;;5063988;28;21007;-78
2022/05/03 01:15:07;;;;;;;6.20;5.57;;;14.90;99.90;;;;;;5056835;28;20493;-79
2022/05/03 01:17:45;;;;;;;6.97;6.37;;;14.80;99.90;;;;;;5063402;28;21121;-78
2022/05/03 01:20:17;;;;;;;7.70;6.37;;;14.90;99.90;;;;;;5064857;28;20465;-80
2022/05/03 01:23:15;;;;;;;7.67;6.43;;;14.80;99.90;;;;;;5058077;28;20459;-79
2022/05/03 01:25:55;;;;;;;8.70;7.87;;;14.70;99.90;;;;;;5058632;28;20468;-78
2022/05/03 01:28:31;;;;;;;7.53;6.70;;;14.80;99.90;;;;;;5059915;28;20980;-79
2022/05/03 01:31:05;;;;;;;7.33;6.60;;;14.80;99.90;;;;;;5059370;28;21071;-79
2022/05/03 01:33:38;;;;;;;8.60;7.67;;;14.90;99.90;;;;;;5060585;28;20448;-80
2022/05/03 01:36:09;;;;;;;6.50;5.90;;;14.80;99.90;;;;;;5059571;28;20465;-79
2022/05/03 01:38:56;;;;;;;7.10;6.43;;;14.70;99.90;;;;;;5063831;28;20463;-78
2022/05/03 01:41:34;;;;;;;9.13;8.23;;;14.50;99.90;;;;;;5060615;28;20516;-79
2022/05/03 01:44:10;;;;;;;7.30;6.60;;;14.50;99.90;;;;;;5062958;28;20974;-80
2022/05/03 01:46:40;;;;;;;7.43;6.73;;;14.50;99.90;;;;;;5062289;28;20453;-81
2022/05/03 01:52:38;;;;;;;11.23;7.00;;;14.60;99.90;;;;;;5063496;28;20549;-79
2022/05/03 01:55:15;;;;;;;7.60;6.90;;;14.50;99.90;;;;;;5063790;28;20536;-79
2022/05/03 01:58:03;;;;;;;12.33;7.27;;;14.50;99.90;;;;;;5062559;28;20518;-79
2022/05/03 02:00:36;;;;;;;7.50;6.80;;;14.60;99.90;;;;;;5054053;28;20478;-79
2022/05/03 02:03:25;;;;;;;8.10;7.30;;;14.60;99.90;;;;;;5059296;28;20474;-79
2022/05/03 02:06:02;;;;;;;7.57;6.57;;;14.80;99.90;;;;;;5057458;28;20446;-80
2022/05/03 02:08:52;;;;;;;8.07;7.23;;;14.60;99.90;;;;;;5057927;28;20461;-78
2022/05/03 02:11:44;;;;;;;7.10;6.20;;;14.60;99.90;;;;;;5062663;28;20494;-78
2022/05/03 02:17:11;;;;;;;7.73;7.00;;;14.50;99.90;;;;;;5059034;28;20464;-79
2022/05/03 02:19:50;;;;;;;7.47;6.77;;;14.40;99.90;;;;;;5060320;28;20577;-78
2022/05/03 02:22:41;;;;;;;7.97;7.17;;;14.20;99.90;;;;;;5058201;28;21576;-78
2022/05/03 02:25:18;;;;;;;7.13;6.63;;;14.30;99.90;;;;;;5026357;28;20477;-78
2022/05/03 02:27:49;;;;;;;7.73;6.83;;;14.30;99.90;;;;;;5058124;28;20515;-79
2022/05/03 02:30:20;;;;;;;7.07;6.37;;;14.30;99.90;;;;;;5059513;28;20461;-76
2022/05/03 02:33:02;;;;;;;6.63;6.03;;;14.30;99.90;;;;;;5061262;28;20453;-78
2022/05/03 02:35:35;;;;;;;7.00;6.10;;;14.30;99.90;;;;;;5059534;28;20863;-78
2022/05/03 02:38:05;;;;;;;7.10;6.27;;;14.30;99.90;;;;;;5062252;28;21023;-79
2022/05/03 02:40:34;;;;;;;7.43;6.73;;;14.30;99.90;;;;;;5060346;28;20485;-78
2022/05/03 02:43:03;;;;;;;8.37;7.47;;;14.30;99.90;;;;;;5060381;28;20492;-77
2022/05/03 02:45:38;;;;;;;7.43;6.70;;;14.20;99.90;;;;;;5064274;28;20943;-79
2022/05/03 02:48:14;;;;;;;8.30;7.43;;;14.20;99.90;;;;;;5062940;28;20965;-78
2022/05/03 02:50:53;;;;;;;8.43;7.47;;;14.20;99.90;;;;;;5061039;28;20469;-77
2022/05/03 02:53:28;;;;;;;7.73;6.93;;;14.20;99.90;;;;;;5062968;28;20450;-78
2022/05/03 02:56:03;;;;;;;7.83;7.03;;;14.30;99.90;;;;;;5055531;28;20477;-77
2022/05/03 02:58:45;;;;;;;8.17;7.37;;;14.30;99.90;;;;;;5065887;28;20488;-78
2022/05/03 03:04:25;;;;;;;6.77;6.17;;;14.30;99.90;;;;;;5062088;28;20456;-76
2022/05/03 03:06:56;;;;;;;7.63;6.93;;;14.30;99.90;;;;;;5059075;28;20458;-76
2022/05/03 03:09:32;;;;;;;9.37;7.50;;;14.20;99.90;;;;;;5061267;28;20514;-78
2022/05/03 03:12:11;;;;;;;6.77;6.17;;;14.10;99.90;;;;;;5054869;28;20461;-79
2022/05/03 03:14:43;;;;;;;7.03;6.33;;;14.00;99.90;;;;;;5063910;28;20492;-78
2022/05/03 03:17:13;;;;;;;7.23;6.53;;;14.00;99.90;;;;;;5059108;28;20461;-78
2022/05/03 03:20:03;;;;;;;7.10;6.07;;;14.00;99.90;;;;;;5061872;28;20456;-78
2022/05/03 03:22:36;;;;;;;7.37;6.37;;;14.00;99.90;;;;;;5073858;28;20479;-79
2022/05/03 03:25:06;;;;;;;7.80;6.80;;;14.00;99.90;;;;;;5063576;28;20467;-75
2022/05/03 03:27:36;;;;;;;8.03;6.37;;;13.90;99.90;;;;;;5063337;28;20788;-77
2022/05/03 03:30:06;;;;;;;7.80;6.97;;;13.80;99.90;;;;;;5061554;28;20480;-78
2022/05/03 03:32:37;;;;;;;6.73;6.07;;;13.80;99.90;;;;;;5061227;28;20471;-78
2022/05/03 03:35:06;;;;;;;6.77;6.10;;;13.90;99.90;;;;;;5061421;28;20488;-76
2022/05/03 03:37:36;;;;;;;11.00;6.80;;;13.90;99.90;;;;;;5058797;28;20456;-78
2022/05/03 03:40:05;;;;;;;7.70;7.03;;;13.90;99.90;;;;;;5062071;28;21557;-78
2022/05/03 03:42:34;;;;;;;8.10;7.30;;;13.90;99.90;;;;;;5062666;28;20522;-78
2022/05/03 03:45:07;;;;;;;7.77;6.87;;;13.90;99.90;;;;;;5055281;28;20497;-78
2022/05/03 03:47:36;;;;;;;7.43;6.50;;;13.90;99.90;;;;;;5061437;28;20472;-78
2022/05/03 03:50:05;;;;;;;6.53;5.83;;;13.80;99.90;;;;;;5063023;28;21113;-79
2022/05/03 03:52:36;;;;;;;8.20;6.50;;;13.60;99.90;;;;;;5062907;28;20479;-77
2022/05/03 03:55:05;;;;;;;7.93;7.13;;;13.60;99.90;;;;;;5061319;28;20485;-79
2022/05/03 03:57:36;;;;;;;7.27;6.57;;;13.70;99.90;;;;;;5059068;28;20454;-78
2022/05/03 04:00:07;;;;;;;7.33;6.50;;;13.80;99.90;;;;;;5060337;28;21054;-79
2022/05/03 04:02:36;;;;;;;6.67;6.07;;;13.80;99.90;;;;;;5058838;28;20447;-79
2022/05/03 04:05:07;;;;;;;6.70;6.10;;;13.80;99.90;;;;;;5059879;28;20489;-76
2022/05/03 04:07:37;;;;;;;7.27;6.50;;;13.80;99.90;;;;;;5063707;28;20848;-78
2022/05/03 04:10:06;;;;;;;8.90;7.50;;;13.80;99.90;;;;;;5059467;28;20477;-78
2022/05/03 04:12:35;;;;;;;8.00;7.30;;;13.80;99.90;;;;;;5062890;28;20483;-78
2022/05/03 04:15:04;;;;;;;7.20;6.57;;;13.90;99.90;;;;;;5060776;28;20487;-80
2022/05/03 04:17:32;;;;;;;7.87;6.83;;;13.80;99.90;;;;;;5062526;28;20448;-78
2022/05/03 04:20:01;;;;;;;8.10;7.30;;;13.80;99.90;;;;;;5051117;28;20508;-78
2022/05/03 04:22:31;;;;;;;8.00;7.23;;;13.70;99.90;;;;;;5055519;28;20466;-78
2022/05/03 04:25:01;;;;;;;8.27;7.47;;;13.50;99.90;;;;;;5060839;28;21093;-77
2022/05/03 04:27:29;;;;;;;9.80;6.77;;;13.40;99.90;;;;;;5056127;28;20456;-78
2022/05/03 04:29:58;;;;;;;10.63;7.77;;;13.40;99.90;;;;;;5061765;28;21388;-76
2022/05/03 04:32:29;;;;;;;7.10;6.50;;;13.50;99.90;;;;;;5060381;28;20496;-78
2022/05/03 04:34:58;;;;;;;7.13;6.43;;;13.60;99.90;;;;;;5055963;28;21259;-77
2022/05/03 04:37:26;;;;;;;8.17;7.10;;;13.50;99.90;;;;;;5057070;28;20462;-76
2022/05/03 04:39:55;;;;;;;7.40;6.70;;;13.40;99.90;;;;;;5058727;28;20457;-76
2022/05/03 04:42:25;;;;;;;10.20;6.60;;;13.30;99.90;;;;;;5061593;28;20471;-78
2022/05/03 04:44:53;;;;;;;8.07;7.07;;;13.20;99.90;;;;;;5059312;28;20466;-78
2022/05/03 04:47:21;;;;;;;8.93;7.43;;;13.00;99.90;;;;;;5057422;28;20455;-78
2022/05/03 04:49:49;;;;;;;11.23;7.30;;;13.00;99.90;;;;;;5057969;28;20446;-77
2022/05/03 04:52:18;;;;;;;10.30;8.20;;;13.00;99.90;;;;;;5059447;28;20517;-77
2022/05/03 04:54:46;;;;;;;8.90;8.10;;;13.00;99.90;;;;;;5061078;28;20846;-76
2022/05/03 04:57:16;;;;;;;9.50;8.53;;;13.00;99.90;;;;;;5057284;28;20488;-78
2022/05/03 04:59:46;;;;;;;9.23;7.37;;;13.20;99.90;;;;;;5062269;28;20459;-77
2022/05/03 05:02:14;;;;;;;7.80;7.10;;;13.10;99.90;;;;;;5056895;28;20559;-79
2022/05/03 05:04:43;;;;;;;8.50;7.73;;;13.30;99.90;;;;;;5053886;28;20452;-79
2022/05/03 05:07:11;;;;;;;7.23;6.63;;;13.40;99.90;;;;;;5059580;28;20521;-78
2022/05/03 05:10:23;;;;;;;8.30;7.50;;;13.60;99.90;;;;;;5056806;28;20457;-78
2022/05/03 05:12:30;;;;;;;8.17;7.17;;;13.70;99.90;;;;;;5055563;28;20475;-78
2022/05/03 05:15:00;;;;;;;6.70;6.10;;;13.80;99.90;;;;;;5057001;28;20455;-77
2022/05/03 05:17:28;;;;;;;8.03;6.87;;;13.80;99.90;;;;;;5059864;28;20508;-78
2022/05/03 05:19:56;;;;;;;9.33;7.00;;;13.80;99.90;;;;;;5063986;28;20446;-77
2022/05/03 05:22:24;;;;;;;7.37;6.67;;;13.80;99.90;;;;;;5050485;28;20542;-80
2022/05/03 05:24:52;;;;;;;8.17;6.43;;;13.90;99.90;;;;;;5055960;28;20450;-80
2022/05/03 05:27:21;;;;;;;8.10;7.30;;;13.90;99.90;;;;;;5058694;28;20448;-79
2022/05/03 05:29:49;;;;;;;9.10;7.30;;;13.90;99.90;;;;;;5060486;28;20464;-79
2022/05/03 05:32:19;;;;;;;8.37;7.50;;;14.00;99.90;;;;;;5057208;28;20896;-79
2022/05/03 05:34:47;;;;;;;8.17;7.40;;;14.10;99.90;;;;;;5062718;28;20451;-79
2022/05/03 05:37:15;;;;;;;8.77;6.73;;;14.00;99.90;;;;;;5062603;28;20476;-78
2022/05/03 05:39:44;;;;;;;9.30;8.40;;;14.10;99.90;;;;;;5064924;28;20468;-77
2022/05/03 05:42:12;;;;;;;9.07;8.17;;;14.00;99.90;;;;;;5059381;28;20482;-79
2022/05/03 05:44:41;;;;;;;7.80;6.90;;;14.10;99.90;;;;;;5060721;28;20455;-78
2022/05/03 05:47:09;;;;;;;9.47;8.47;;;14.20;99.90;;;;;;5058653;28;20457;-78
2022/05/03 05:49:38;;;;;;;9.83;8.83;;;14.10;99.90;;;;;;5062008;28;20452;-77
2022/05/03 05:54:53;;;;;;;7.83;7.13;;;14.10;99.90;;;;;;5059672;28;20954;-79
2022/05/03 05:57:21;;;;;;;8.00;6.70;;;14.30;99.90;;;;;;5059670;28;20477;-78
2022/05/03 05:59:49;;;;;;;9.27;8.33;;;14.30;99.90;;;;;;5059598;28;20460;-77
2022/05/03 06:02:18;;;;;;;9.37;8.50;;;14.40;99.90;;;;;;5058091;28;20518;-79
2022/05/03 06:04:48;;;;;;;8.83;8.00;;;14.40;99.90;;;;;;5060569;28;20977;-78
2022/05/03 06:07:22;;;;;;;9.00;7.90;;;14.50;99.90;;;;;;5057307;28;20451;-78
2022/05/03 06:09:51;;;;;;;10.10;7.90;;;14.40;99.90;;;;;;5075865;28;20449;-78
2022/05/03 06:12:19;;;;;;;11.70;8.30;;;14.40;99.90;;;;;;5062102;28;20479;-78
2022/05/03 06:14:47;;;;;;;9.00;7.33;;;14.40;99.90;;;;;;5057585;28;20513;-77
2022/05/03 06:17:16;;;;;;;11.80;8.90;;;14.40;99.90;;;;;;5060385;28;20476;-77
2022/05/03 06:19:44;;;;;;;11.50;9.53;;;14.50;99.90;;;;;;5062872;28;20462;-77
2022/05/03 06:22:13;;;;;;;10.77;9.67;;;14.60;99.90;;;;;;5061397;28;20488;-78
2022/05/03 06:24:45;;;;;;;9.97;8.60;;;14.70;99.90;;;;;;5062167;28;20456;-79
2022/05/03 06:27:14;;;;;;;12.83;9.00;;;14.60;99.90;;;;;;5058710;28;20473;-80
2022/05/03 06:29:43;;;;;;;13.17;10.30;;;14.70;99.90;;;;;;5061564;28;20487;-78
2022/05/03 06:32:11;;;;;;;10.90;8.17;;;14.70;99.90;;;;;;5063805;28;20482;-78
2022/05/03 06:34:40;;;;;;;12.60;9.90;;;14.80;99.90;;;;;;5058691;28;21212;-78
2022/05/03 06:37:09;;;;;;;11.77;10.17;;;14.80;99.90;;;;;;5059239;28;20519;-77
2022/05/03 06:39:38;;;;;;;16.07;9.87;;;14.80;99.90;;;;;;5062163;28;20445;-77
2022/05/03 06:42:08;;;;;;;11.13;10.03;;;14.80;99.90;;;;;;5064830;28;20476;-78
2022/05/03 06:44:37;;;;;;;8.77;8.00;;;14.90;99.90;;;;;;5057529;28;20466;-79
2022/05/03 06:47:06;;;;;;;11.23;8.43;;;15.00;99.90;;;;;;5093103;28;20549;-78
2022/05/03 06:49:34;;;;;;;10.00;9.00;;;15.10;99.90;;;;;;5063529;28;20502;-77
2022/05/03 06:52:03;;;;;;;9.60;8.70;;;15.10;99.90;;;;;;5062436;28;20466;-77
2022/05/03 06:54:31;;;;;;;12.43;8.20;;;15.20;99.90;;;;;;5061100;28;20459;-78
2022/05/03 06:57:01;;;;;;;10.23;9.23;;;15.20;99.90;;;;;;5063878;28;20491;-78
2022/05/03 06:59:29;;;;;;;15.07;9.40;;;15.40;99.90;;;;;;5063300;28;20829;-78
2022/05/03 07:01:58;;;;;;;11.43;9.33;;;15.50;99.90;;;;;;5063265;28;20545;-75
2022/05/03 07:04:26;;;;;;;12.93;9.00;;;15.50;99.90;;;;;;5049016;28;21054;-77
2022/05/03 07:06:54;;;;;;;22.60;10.47;;;15.60;99.90;;;;;;5059497;28;20462;-78
2022/05/03 07:09:22;;;;;;;10.83;9.60;;;15.70;99.90;;;;;;5059373;28;20477;-77
2022/05/03 07:11:51;;;;;;;11.97;9.20;;;15.80;99.90;;;;;;5065970;28;20468;-77
2022/05/03 07:14:22;;;;;;;11.93;9.83;;;15.80;99.90;;;;;;5068725;28;20478;-77
2022/05/03 07:16:50;;;;;;;11.43;10.30;;;15.90;99.90;;;;;;5063705;28;20471;-78
2022/05/03 07:24:49;;;;;;;10.33;9.20;;;16.30;99.90;;;;;;5056174;28;20454;-77
2022/05/03 07:27:17;;;;;;;10.30;8.53;;;16.40;99.90;;;;;;5068865;28;20510;-77
2022/05/03 07:29:47;;;;;;;10.97;9.87;;;16.50;99.90;;;;;;5064214;28;20841;-78
2022/05/03 07:32:15;;;;;;;12.93;9.37;;;16.60;99.90;;;;;;5050142;28;20481;-77
2022/05/03 07:34:44;;;;;;;12.43;8.43;;;16.60;99.90;;;;;;5054706;28;20456;-78
2022/05/03 07:37:12;;;;;;;9.90;8.20;;;16.70;99.90;;;;;;5059419;28;20533;-78
2022/05/03 07:39:40;;;;;;;11.13;8.77;;;16.70;99.90;;;;;;5064768;28;20525;-78
2022/05/03 07:42:09;;;;;;;10.07;8.90;;;16.80;99.90;;;;;;5061258;28;20567;-78
2022/05/03 07:44:37;;;;;;;9.00;8.00;;;16.70;99.90;;;;;;5065915;28;20453;-78
2022/05/03 07:47:07;;;;;;;9.27;8.37;;;16.80;99.90;;;;;;5059970;28;20461;-79
2022/05/03 07:49:35;;;;;;;8.27;7.47;;;16.80;99.90;;;;;;5067250;28;20461;-77
2022/05/03 07:52:05;;;;;;;11.73;8.80;;;16.80;99.90;;;;;;5062368;28;20485;-78
2022/05/03 07:54:33;;;;;;;9.60;8.63;;;16.80;99.90;;;;;;5062308;28;20445;-78
2022/05/03 07:57:02;;;;;;;9.23;8.33;;;16.90;99.90;;;;;;5061278;28;20507;-77
2022/05/03 07:59:30;;;;;;;11.40;9.37;;;17.00;99.90;;;;;;5058434;28;21835;-78
2022/05/03 08:01:59;;;;;;;14.37;8.67;;;16.90;99.90;;;;;;5059826;28;20506;-75
2022/05/03 08:04:33;;;;;;;9.60;8.70;;;16.90;99.90;;;;;;5063323;28;20455;-78
2022/05/03 08:07:02;;;;;;;10.30;8.40;;;17.00;99.90;;;;;;5063736;28;20459;-77
2022/05/03 08:09:30;;;;;;;9.20;8.30;;;16.90;99.90;;;;;;5060942;28;20487;-76
2022/05/03 08:12:00;;;;;;;10.50;7.53;;;17.00;99.90;;;;;;5061351;28;21712;-75
2022/05/03 08:14:29;;;;;;;11.00;8.40;;;17.00;99.90;;;;;;5055690;28;20575;-78
2022/05/03 08:17:01;;;;;;;9.80;8.27;;;17.00;99.90;;;;;;5057468;28;20456;-77
2022/05/03 08:19:30;;;;;;;8.67;7.63;;;17.10;99.90;;;;;;5058099;28;20544;-79
2022/05/03 08:21:59;;;;;;;10.67;7.90;;;17.10;99.90;;;;;;5059898;28;20584;-75
2022/05/03 08:24:28;;;;;;;7.17;6.50;;;17.20;99.90;;;;;;5063576;28;20529;-77
2022/05/03 08:26:56;;;;;;;8.10;6.23;;;17.30;99.90;;;;;;5057989;28;20453;-78
2022/05/03 08:29:27;;;;;;;6.80;5.73;;;17.30;99.90;;;;;;5058318;28;20937;-76
2022/05/03 08:31:55;;;;;;;5.63;5.17;;;17.40;99.90;;;;;;5062192;28;20477;-78
2022/05/03 08:34:23;;;;;;;6.80;6.10;;;17.50;99.90;;;;;;5060354;28;20784;-77
2022/05/03 08:42:25;;;;;;;5.40;4.90;;;17.60;99.90;;;;;;5062313;28;20476;-78
2022/05/03 08:44:53;;;;;;;5.90;5.40;;;17.80;99.90;;;;;;5062409;28;20456;-79
2022/05/03 08:47:21;;;;;;;5.30;4.80;;;17.80;99.90;;;;;;5059190;28;20461;-78
2022/05/03 08:49:57;;;;;;;6.07;5.20;;;17.90;99.90;;;;;;5061906;28;20460;-78
2022/05/03 08:52:28;;;;;;;5.47;4.97;;;18.00;99.90;;;;;;5060892;28;20845;-77
2022/05/03 08:54:59;;;;;;;6.90;6.20;;;18.00;99.90;;;;;;5059400;28;20552;-77
2022/05/03 08:57:28;;;;;;;6.20;4.90;;;18.00;99.90;;;;;;5060603;28;21153;-79
2022/05/03 08:59:57;;;;;;;6.27;5.67;;;18.10;99.90;;;;;;5062874;28;20988;-79
2022/05/03 09:02:26;;;;;;;6.43;4.90;;;18.00;99.90;;;;;;5060832;28;20734;-77
2022/05/03 09:04:54;;;;;;;5.00;4.50;;;18.00;99.90;;;;;;5058542;28;20461;-79
2022/05/03 09:07:25;;;;;;;5.67;5.27;;;18.00;99.90;;;;;;5060931;28;20469;-79
2022/05/03 09:09:55;;;;;;;6.20;5.43;;;18.00;99.90;;;;;;5059513;28;20553;-78
2022/05/03 09:12:27;;;;;;;5.60;5.10;;;18.10;99.90;;;;;;5059870;28;20586;-78
2022/05/03 09:14:57;;;;;;;4.43;4.10;;;18.10;99.90;;;;;;5061437;28;20511;-80
2022/05/03 09:17:37;;;;;;;5.20;4.70;;;18.20;99.90;;;;;;5060461;28;20454;-78
2022/05/03 09:26:11;;;;;;;7.20;2.00;;;18.50;99.90;;;;;;5059757;28;20457;-79
2022/05/03 09:28:49;;;;;;;3.10;2.30;;;18.60;99.90;;;;;;5059935;28;20462;-81
2022/05/03 09:31:29;;;;;;;2.50;2.07;;;18.70;99.90;;;;;;5063138;28;20481;-81
2022/05/03 09:33:58;;;;;;;3.70;2.40;;;18.80;99.90;;;;;;5064076;28;20462;-81
2022/05/03 09:36:26;;;;;;;2.20;2.03;;;18.80;99.90;;;;;;5066882;28;20811;-81
2022/05/03 09:39:24;;;;;;;2.43;2.23;;;18.90;99.90;;;;;;5059888;28;21072;-81
2022/05/03 09:42:10;;;;;;;2.87;2.47;;;18.90;99.90;;;;;;5066276;28;20465;-82
2022/05/03 09:44:52;;;;;;;2.17;2.00;;;18.90;99.90;;;;;;5066355;28;21117;-81
2022/05/03 09:47:22;;;;;;;2.43;2.23;;;18.90;99.90;;;;;;5067031;28;20509;-80
2022/05/03 09:49:51;;;;;;;2.03;1.90;;;18.90;99.90;;;;;;5063633;28;20431;-81
2022/05/03 09:52:29;;;;;;;2.80;2.00;;;19.10;99.90;;;;;;5069395;28;20553;-82
2022/05/03 09:55:03;;;;;;;2.27;2.13;;;19.10;99.90;;;;;;5067661;28;20453;-80
2022/05/03 09:57:33;;;;;;;2.33;2.10;;;19.20;99.90;;;;;;5070832;28;20450;-82
2022/05/03 10:00:06;;;;;;;2.27;2.17;;;19.30;99.90;;;;;;5069956;28;20481;-81
2022/05/03 10:02:35;;;;;;;2.23;2.13;;;19.40;99.90;;;;;;5067566;28;20470;-80
2022/05/03 10:05:04;;;;;;;2.53;2.33;;;19.40;99.90;;;;;;5071534;28;20449;-80
2022/05/03 10:07:33;;;;;;;2.67;2.47;;;19.50;99.90;;;;;;5065946;28;20883;-80
2022/05/03 10:10:07;;;;;;;2.00;1.70;;;19.40;99.90;;;;;;5062923;28;20460;-81
2022/05/03 10:12:36;;;;;;;1.80;1.70;;;19.50;99.90;;;;;;5064701;28;20467;-81
2022/05/03 10:15:07;;;;;;;2.10;2.00;;;19.50;99.90;;;;;;5066092;28;20454;-81
2022/05/03 10:20:38;;;;;;;3.30;2.17;;;19.50;99.90;;;;;;5068672;28;20933;-78
2022/05/03 10:23:23;;;;;;;2.47;2.27;;;19.40;99.90;;;;;;5066732;28;20636;-79
2022/05/03 10:25:53;;;;;;;2.40;2.20;;;19.50;99.90;;;;;;5065152;28;20445;-79
2022/05/03 10:28:22;;;;;;;2.80;1.90;;;19.40;99.90;;;;;;5068622;28;20849;-79
2022/05/03 10:31:14;;;;;;;2.17;1.97;;;19.40;99.90;;;;;;5057467;28;20509;-79
2022/05/03 10:33:43;;;;;;;2.40;2.30;;;19.40;99.90;;;;;;5064844;28;20451;-78
2022/05/03 10:36:48;;;;;;;2.23;2.03;;;19.30;99.90;;;;;;5059621;28;20458;-79
2022/05/03 10:39:21;;;;;;;2.43;2.23;;;19.30;99.90;;;;;;5061972;28;20474;-80
2022/05/03 10:41:59;;;;;;;1.97;1.87;;;19.30;99.90;;;;;;5067057;28;20475;-79
2022/05/03 10:44:45;;;;;;;2.63;2.40;;;19.30;99.90;;;;;;5066793;28;20470;-79
2022/05/03 10:47:20;;;;;;;2.20;2.00;;;19.30;99.90;;;;;;5068645;28;20570;-79
2022/05/03 10:50:23;;;;;;;2.40;2.20;;;19.30;99.90;;;;;;5064524;28;20856;-78
2022/05/03 10:53:18;;;;;;;1.97;1.80;;;19.40;99.90;;;;;;5053856;28;20442;-79
2022/05/03 10:56:12;;;;;;;3.60;2.67;;;19.50;99.90;;;;;;5062575;28;20458;-79
2022/05/03 10:58:41;;;;;;;2.37;2.17;;;19.50;99.90;;;;;;5063183;28;20561;-79
2022/05/03 11:01:19;;;;;;;2.23;1.93;;;19.60;99.90;;;;;;5061847;28;20481;-79
2022/05/03 11:04:11;;;;;;;2.57;2.37;;;19.60;99.90;;;;;;5061165;28;20508;-78
2022/05/03 11:06:46;;;;;;;2.53;2.30;;;19.60;99.90;;;;;;5063379;28;20443;-78
2022/05/03 11:09:16;;;;;;;2.10;2.00;;;19.70;99.90;;;;;;5058589;28;20454;-78
2022/05/03 11:12:08;;;;;;;1.90;1.80;;;19.80;99.90;;;;;;5064173;28;20494;-79
2022/05/03 11:14:50;;;;;;;2.33;2.13;;;19.80;99.90;;;;;;5056086;28;21009;-78
2022/05/03 11:17:19;;;;;;;2.30;2.10;;;19.80;99.90;;;;;;5052636;28;20450;-78
2022/05/03 11:19:52;;;;;;;2.40;2.20;;;19.90;99.90;;;;;;5063111;28;20474;-79
2022/05/03 11:22:23;;;;;;;1.90;1.80;;;20.00;99.90;;;;;;5055574;28;20489;-78
2022/05/03 11:24:57;;;;;;;2.60;2.20;;;20.10;99.90;;;;;;5058235;28;20451;-79
2022/05/03 11:27:26;;;;;;;3.50;2.20;;;20.10;99.90;;;;;;5058517;28;20472;-79
2022/05/03 11:29:59;;;;;;;2.97;2.13;;;20.10;99.90;;;;;;5060808;28;20454;-79
2022/05/03 11:32:31;;;;;;;2.33;1.73;;;20.20;99.90;;;;;;5059915;28;21013;-79
2022/05/03 11:35:12;;;;;;;2.77;2.40;;;20.20;99.90;;;;;;5056360;28;20459;-78
2022/05/03 11:37:49;;;;;;;2.37;2.27;;;20.30;99.90;;;;;;5057243;28;20463;-79
2022/05/03 11:40:20;;;;;;;1.80;1.70;;;20.30;99.90;;;;;;5058804;28;20573;-78
2022/05/03 11:42:49;;;;;;;2.50;1.67;;;20.20;99.90;;;;;;5052855;28;20467;-79
2022/05/03 11:45:19;;;;;;;2.00;1.90;;;20.20;99.90;;;;;;5058291;28;20459;-79
2022/05/03 11:47:48;;;;;;;1.77;1.67;;;20.20;99.90;;;;;;5062103;28;20435;-78
2022/05/03 11:56:04;;;;;;;2.67;1.87;;;20.30;99.90;;;;;;5056622;28;20450;-78
2022/05/03 11:58:35;;;;;;;1.90;1.80;;;20.30;99.90;;;;;;5059641;28;21237;-79
2022/05/03 12:01:12;;;;;;;1.90;1.80;;;20.30;99.90;;;;;;5056785;28;20487;-79
2022/05/03 12:03:48;;;;;;;1.90;1.80;;;20.40;99.90;;;;;;5057820;28;20481;-79
2022/05/03 12:06:19;;;;;;;2.63;2.33;;;20.40;99.90;;;;;;5058374;28;20443;-78
2022/05/03 12:08:50;;;;;;;3.63;1.80;;;20.40;99.90;;;;;;5057864;28;20872;-79
2022/05/03 12:11:21;;;;;;;3.20;2.53;;;20.40;99.90;;;;;;5053617;28;20510;-79
2022/05/03 12:13:49;;;;;;;1.70;1.60;;;20.40;99.90;;;;;;5055181;28;21071;-77
2022/05/03 12:16:23;;;;;;;2.70;2.50;;;20.40;99.90;;;;;;5053906;28;20520;-78
2022/05/03 12:18:53;;;;;;;2.00;1.90;;;20.40;99.90;;;;;;5058925;28;20455;-79
2022/05/03 12:21:28;;;;;;;2.03;1.77;;;20.30;99.90;;;;;;5059097;28;21008;-79
2022/05/03 12:24:01;;;;;;;2.33;1.87;;;20.30;99.90;;;;;;5055335;28;20472;-79
2022/05/03 12:26:36;;;;;;;2.00;1.90;;;20.40;99.90;;;;;;5056507;28;20453;-79
2022/05/03 12:29:05;;;;;;;2.20;2.00;;;20.40;99.90;;;;;;5059404;28;20568;-78
2022/05/03 12:31:36;;;;;;;2.30;1.80;;;20.40;99.90;;;;;;5055893;28;21327;-79
2022/05/03 12:34:07;;;;;;;2.37;2.10;;;20.40;99.90;;;;;;5059817;28;20450;-78
2022/05/03 12:36:40;;;;;;;3.37;1.80;;;20.40;99.90;;;;;;5060341;28;20534;-80
2022/05/03 12:39:17;;;;;;;1.73;1.60;;;20.40;99.90;;;;;;5060550;28;20455;-79
2022/05/03 12:42:00;;;;;;;2.23;2.03;;;20.40;99.90;;;;;;5061741;28;21217;-79
2022/05/03 12:44:29;;;;;;;3.03;2.13;;;20.30;99.90;;;;;;5055102;28;20481;-79
2022/05/03 12:47:06;;;;;;;2.10;1.90;;;20.40;99.90;;;;;;5049834;28;20620;-80
2022/05/03 12:49:37;;;;;;;2.50;1.60;;;20.40;99.90;;;;;;5054021;28;20473;-79
2022/05/03 12:52:07;;;;;;;2.37;2.27;;;20.40;99.90;;;;;;5052199;28;20528;-78
2022/05/03 12:54:39;;;;;;;2.23;2.00;;;20.40;99.90;;;;;;5049826;28;20527;-79
2022/05/03 12:59:54;;;;;;;3.05;2.20;;;20.40;99.90;;;;;;5053331;28;20781;-79
2022/05/03 13:02:23;;;;;;;3.53;2.23;;;20.50;99.90;;;;;;5061168;28;20224;-79
2022/05/03 13:04:51;;;;;;;2.40;2.20;;;20.50;99.90;;;;;;5060250;28;20978;-79
2022/05/03 13:07:21;;;;;;;3.43;2.63;;;20.20;99.90;;;;;;5055995;28;20529;-80
2022/05/03 13:09:49;;;;;;;2.67;2.47;;;19.80;99.90;;;;;;5056109;28;20774;-79
2022/05/03 13:12:18;;;;;;;2.30;2.10;;;19.40;99.90;;;;;;5059319;28;21144;-78
2022/05/03 13:14:46;;;;;;;2.87;2.60;;;19.30;99.90;;;;;;5057435;28;20455;-78
2022/05/03 13:17:14;;;;;;;2.10;1.50;;;19.30;99.90;;;;;;5055967;28;20557;-78
2022/05/03 13:19:42;;;;;;;2.23;1.70;;;19.30;99.90;;;;;;5065045;28;20451;-78
2022/05/03 13:22:11;;;;;;;2.90;1.80;;;19.30;99.90;;;;;;5061447;28;20482;-79
2022/05/03 13:24:40;;;;;;;2.60;2.20;;;19.20;99.90;;;;;;5060074;28;20462;-78
2022/05/03 13:27:08;;;;;;;2.23;2.03;;;19.10;99.90;;;;;;5056620;28;20463;-79
2022/05/03 13:29:36;;;;;;;3.00;1.50;;;19.00;99.90;;;;;;5057173;28;20459;-79
2022/05/03 13:32:05;;;;;;;2.33;1.60;;;19.00;99.90;;;;;;5056622;28;21138;-79
2022/05/03 13:34:34;;;;;;;1.53;1.43;;;19.00;99.90;;;;;;5055711;28;22155;-78
2022/05/03 13:42:35;;;;;;;2.90;2.00;;;18.80;99.90;;;;;;5063190;28;20493;-78
2022/05/03 13:45:03;;;;;;;2.13;2.03;;;18.70;99.90;;;;;;5064514;28;20466;-77
2022/05/03 13:47:32;;;;;;;1.93;1.80;;;18.70;99.90;;;;;;5065171;28;20446;-78
2022/05/03 13:50:00;;;;;;;2.30;2.10;;;18.60;99.90;;;;;;5067626;28;20450;-78
2022/05/03 13:52:30;;;;;;;2.37;2.07;;;18.60;99.90;;;;;;5069303;28;20480;-77
2022/05/03 13:55:00;;;;;;;3.40;2.10;;;18.50;99.90;;;;;;5065064;28;20816;-76
2022/05/03 13:57:28;;;;;;;2.13;1.93;;;18.40;99.90;;;;;;5066100;28;20477;-78